Osage, Minnesota
Current Conditions -  °F | °C
As of 8:28 PM on Saturday 22 Nov 2014 (Local Time) from KPKD Reporting Station
Haze Haze  
Wind Chill: 19°   Ceiling: 400
Heat Index: 31°   Visibility: 6mi
Dew Point: 30°   Wind: 20mph
Humidity: 96%   Direction: 160°SSE
Pressure: 29.46"   Gusts: NA
Location:  46.92°N, 95.26°W
Report Text: KPKD 230228Z AUTO 16017KT 6SM BR OVC004 M01/M01 A2946 RMK AO2 T10061011
Loading
Personal Weather Stations






























Interactive Weather Map New forecast layout! Learn more

10-Day Weather Forecast

Advertisements
Track Severe Weather on mobile